sensor_id;sensor_type;location;lat;lon;timestamp;P1;durP1;ratioP1;P2;durP2;ratioP2
73678;SDS011;61978;52.742;16.962;2023-03-11T00:00:43;90.70;;;41.00;;
73678;SDS011;61978;52.742;16.962;2023-03-11T00:03:11;93.00;;;43.00;;
73678;SDS011;61978;52.742;16.962;2023-03-11T00:05:38;87.30;;;40.60;;
73678;SDS011;61978;52.742;16.962;2023-03-11T00:08:05;73.50;;;36.30;;
73678;SDS011;61978;52.742;16.962;2023-03-11T00:10:32;79.20;;;38.00;;
73678;SDS011;61978;52.742;16.962;2023-03-11T00:12:59;77.50;;;35.00;;
73678;SDS011;61978;52.742;16.962;2023-03-11T00:15:26;68.30;;;35.40;;
73678;SDS011;61978;52.742;16.962;2023-03-11T00:17:52;62.00;;;32.30;;
73678;SDS011;61978;52.742;16.962;2023-03-11T00:20:32;65.40;;;33.10;;
73678;SDS011;61978;52.742;16.962;2023-03-11T00:22:58;77.20;;;35.40;;
73678;SDS011;61978;52.742;16.962;2023-03-11T00:25:24;70.90;;;34.10;;
73678;SDS011;61978;52.742;16.962;2023-03-11T00:27:50;75.50;;;35.40;;
73678;SDS011;61978;52.742;16.962;2023-03-11T00:30:17;76.60;;;35.20;;
73678;SDS011;61978;52.742;16.962;2023-03-11T00:32:44;74.50;;;34.80;;
73678;SDS011;61978;52.742;16.962;2023-03-11T00:35:12;76.00;;;35.00;;
73678;SDS011;61978;52.742;16.962;2023-03-11T00:37:38;66.30;;;32.80;;
73678;SDS011;61978;52.742;16.962;2023-03-11T00:40:04;83.40;;;34.60;;
73678;SDS011;61978;52.742;16.962;2023-03-11T00:42:34;77.40;;;36.60;;
73678;SDS011;61978;52.742;16.962;2023-03-11T00:44:59;57.20;;;29.30;;
73678;SDS011;61978;52.742;16.962;2023-03-11T00:47:25;63.20;;;30.90;;
73678;SDS011;61978;52.742;16.962;2023-03-11T00:49:51;59.50;;;30.10;;
73678;SDS011;61978;52.742;16.962;2023-03-11T00:52:17;65.80;;;30.60;;
73678;SDS011;61978;52.742;16.962;2023-03-11T00:54:42;71.80;;;31.60;;
73678;SDS011;61978;52.742;16.962;2023-03-11T00:57:10;64.50;;;30.60;;
73678;SDS011;61978;52.742;16.962;2023-03-11T00:59:36;68.40;;;30.40;;
73678;SDS011;61978;52.742;16.962;2023-03-11T01:02:02;57.30;;;28.80;;
73678;SDS011;61978;52.742;16.962;2023-03-11T01:04:27;64.90;;;28.60;;
73678;SDS011;61978;52.742;16.962;2023-03-11T01:06:53;63.70;;;29.80;;
73678;SDS011;61978;52.742;16.962;2023-03-11T01:09:19;60.10;;;29.90;;
73678;SDS011;61978;52.742;16.962;2023-03-11T01:11:44;54.50;;;26.20;;
73678;SDS011;61978;52.742;16.962;2023-03-11T01:14:10;50.60;;;25.30;;
73678;SDS011;61978;52.742;16.962;2023-03-11T01:16:36;51.90;;;26.30;;
73678;SDS011;61978;52.742;16.962;2023-03-11T01:19:01;64.10;;;28.80;;
73678;SDS011;61978;52.742;16.962;2023-03-11T01:21:27;53.70;;;26.30;;
73678;SDS011;61978;52.742;16.962;2023-03-11T01:23:52;56.10;;;27.10;;
73678;SDS011;61978;52.742;16.962;2023-03-11T01:26:18;55.60;;;26.50;;
73678;SDS011;61978;52.742;16.962;2023-03-11T01:28:44;56.60;;;28.50;;
73678;SDS011;61978;52.742;16.962;2023-03-11T01:31:09;58.10;;;27.50;;
73678;SDS011;61978;52.742;16.962;2023-03-11T01:33:36;66.90;;;29.70;;
73678;SDS011;61978;52.742;16.962;2023-03-11T01:36:02;52.70;;;26.00;;
73678;SDS011;61978;52.742;16.962;2023-03-11T01:38:28;70.90;;;28.40;;
73678;SDS011;61978;52.742;16.962;2023-03-11T01:40:53;56.60;;;27.10;;
73678;SDS011;61978;52.742;16.962;2023-03-11T01:46:08;68.10;;;29.10;;
73678;SDS011;61978;52.742;16.962;2023-03-11T01:48:35;59.60;;;28.80;;
73678;SDS011;61978;52.742;16.962;2023-03-11T01:51:03;44.70;;;23.40;;
73678;SDS011;61978;52.742;16.962;2023-03-11T01:53:30;46.80;;;23.70;;
73678;SDS011;61978;52.742;16.962;2023-03-11T01:55:56;45.80;;;26.10;;
73678;SDS011;61978;52.742;16.962;2023-03-11T01:58:23;46.10;;;25.00;;
73678;SDS011;61978;52.742;16.962;2023-03-11T02:00:50;48.70;;;23.80;;
73678;SDS011;61978;52.742;16.962;2023-03-11T02:03:25;37.10;;;17.70;;
73678;SDS011;61978;52.742;16.962;2023-03-11T02:05:52;40.20;;;20.40;;
73678;SDS011;61978;52.742;16.962;2023-03-11T02:08:18;38.50;;;20.10;;
73678;SDS011;61978;52.742;16.962;2023-03-11T02:10:44;42.70;;;18.80;;
73678;SDS011;61978;52.742;16.962;2023-03-11T02:13:10;34.50;;;15.80;;
73678;SDS011;61978;52.742;16.962;2023-03-11T02:15:36;48.50;;;19.10;;
73678;SDS011;61978;52.742;16.962;2023-03-11T02:18:02;35.30;;;17.50;;
73678;SDS011;61978;52.742;16.962;2023-03-11T02:23:07;40.50;;;17.20;;
73678;SDS011;61978;52.742;16.962;2023-03-11T02:25:45;36.20;;;19.30;;
73678;SDS011;61978;52.742;16.962;2023-03-11T02:28:12;35.10;;;18.00;;
73678;SDS011;61978;52.742;16.962;2023-03-11T02:30:40;28.40;;;15.40;;
73678;SDS011;61978;52.742;16.962;2023-03-11T02:33:06;28.10;;;15.50;;
73678;SDS011;61978;52.742;16.962;2023-03-11T02:35:33;33.90;;;18.00;;
73678;SDS011;61978;52.742;16.962;2023-03-11T02:37:59;32.10;;;19.00;;
73678;SDS011;61978;52.742;16.962;2023-03-11T02:43:10;27.60;;;13.50;;
73678;SDS011;61978;52.742;16.962;2023-03-11T02:45:38;20.10;;;12.30;;
73678;SDS011;61978;52.742;16.962;2023-03-11T02:48:04;24.00;;;14.30;;
73678;SDS011;61978;52.742;16.962;2023-03-11T02:50:31;17.70;;;10.80;;
73678;SDS011;61978;52.742;16.962;2023-03-11T02:52:59;23.40;;;12.80;;
73678;SDS011;61978;52.742;16.962;2023-03-11T02:55:25;20.20;;;12.30;;
73678;SDS011;61978;52.742;16.962;2023-03-11T02:57:51;21.70;;;11.70;;
73678;SDS011;61978;52.742;16.962;2023-03-11T03:00:17;20.20;;;11.80;;
73678;SDS011;61978;52.742;16.962;2023-03-11T03:02:49;20.90;;;11.90;;
73678;SDS011;61978;52.742;16.962;2023-03-11T03:05:17;17.80;;;10.60;;
73678;SDS011;61978;52.742;16.962;2023-03-11T03:07:45;16.80;;;9.60;;
73678;SDS011;61978;52.742;16.962;2023-03-11T03:10:14;18.70;;;9.80;;
73678;SDS011;61978;52.742;16.962;2023-03-11T03:12:40;17.00;;;10.00;;
73678;SDS011;61978;52.742;16.962;2023-03-11T03:15:08;15.40;;;9.30;;
73678;SDS011;61978;52.742;16.962;2023-03-11T03:17:35;15.10;;;9.50;;
73678;SDS011;61978;52.742;16.962;2023-03-11T03:20:05;11.90;;;7.80;;
73678;SDS011;61978;52.742;16.962;2023-03-11T03:22:37;12.50;;;8.00;;
73678;SDS011;61978;52.742;16.962;2023-03-11T03:25:04;15.60;;;9.10;;
73678;SDS011;61978;52.742;16.962;2023-03-11T03:27:30;12.40;;;8.20;;
73678;SDS011;61978;52.742;16.962;2023-03-11T03:29:56;11.30;;;8.00;;
73678;SDS011;61978;52.742;16.962;2023-03-11T03:32:22;13.90;;;9.10;;
73678;SDS011;61978;52.742;16.962;2023-03-11T03:34:48;17.10;;;9.40;;
73678;SDS011;61978;52.742;16.962;2023-03-11T03:37:14;12.70;;;7.70;;
73678;SDS011;61978;52.742;16.962;2023-03-11T03:39:41;13.50;;;7.70;;
73678;SDS011;61978;52.742;16.962;2023-03-11T03:42:10;13.60;;;8.50;;
73678;SDS011;61978;52.742;16.962;2023-03-11T03:44:37;13.80;;;9.90;;
73678;SDS011;61978;52.742;16.962;2023-03-11T03:47:04;10.60;;;7.30;;
73678;SDS011;61978;52.742;16.962;2023-03-11T03:49:32;9.50;;;6.40;;
73678;SDS011;61978;52.742;16.962;2023-03-11T03:51:59;12.40;;;8.20;;
73678;SDS011;61978;52.742;16.962;2023-03-11T03:54:29;10.80;;;7.40;;
73678;SDS011;61978;52.742;16.962;2023-03-11T03:56:56;11.80;;;8.20;;
73678;SDS011;61978;52.742;16.962;2023-03-11T03:59:23;12.00;;;7.80;;
73678;SDS011;61978;52.742;16.962;2023-03-11T04:01:55;13.60;;;7.80;;
73678;SDS011;61978;52.742;16.962;2023-03-11T04:04:23;8.50;;;5.40;;
73678;SDS011;61978;52.742;16.962;2023-03-11T04:06:49;12.40;;;8.30;;
73678;SDS011;61978;52.742;16.962;2023-03-11T04:09:16;12.50;;;7.90;;
73678;SDS011;61978;52.742;16.962;2023-03-11T04:11:44;15.10;;;8.20;;
73678;SDS011;61978;52.742;16.962;2023-03-11T04:14:11;12.90;;;8.40;;
73678;SDS011;61978;52.742;16.962;2023-03-11T04:16:41;15.50;;;10.20;;
73678;SDS011;61978;52.742;16.962;2023-03-11T04:19:10;18.40;;;11.30;;
73678;SDS011;61978;52.742;16.962;2023-03-11T04:21:42;18.20;;;11.90;;
73678;SDS011;61978;52.742;16.962;2023-03-11T04:24:10;18.70;;;11.90;;
73678;SDS011;61978;52.742;16.962;2023-03-11T04:26:36;17.30;;;10.30;;
73678;SDS011;61978;52.742;16.962;2023-03-11T04:29:05;23.70;;;12.70;;
73678;SDS011;61978;52.742;16.962;2023-03-11T04:31:37;22.20;;;13.10;;
73678;SDS011;61978;52.742;16.962;2023-03-11T04:34:04;23.20;;;13.20;;
73678;SDS011;61978;52.742;16.962;2023-03-11T04:36:31;22.00;;;11.70;;
73678;SDS011;61978;52.742;16.962;2023-03-11T04:38:58;20.90;;;12.00;;
73678;SDS011;61978;52.742;16.962;2023-03-11T04:41:24;15.30;;;10.20;;
73678;SDS011;61978;52.742;16.962;2023-03-11T04:43:50;19.20;;;11.80;;
73678;SDS011;61978;52.742;16.962;2023-03-11T04:46:17;16.20;;;9.60;;
73678;SDS011;61978;52.742;16.962;2023-03-11T04:48:44;21.40;;;12.90;;
73678;SDS011;61978;52.742;16.962;2023-03-11T04:51:09;17.90;;;10.60;;
73678;SDS011;61978;52.742;16.962;2023-03-11T04:53:35;23.70;;;13.60;;
73678;SDS011;61978;52.742;16.962;2023-03-11T04:56:03;23.50;;;14.90;;
73678;SDS011;61978;52.742;16.962;2023-03-11T04:58:29;24.20;;;14.40;;
73678;SDS011;61978;52.742;16.962;2023-03-11T05:00:56;28.10;;;15.80;;
73678;SDS011;61978;52.742;16.962;2023-03-11T05:03:23;23.80;;;14.60;;
73678;SDS011;61978;52.742;16.962;2023-03-11T05:05:49;31.70;;;16.40;;
73678;SDS011;61978;52.742;16.962;2023-03-11T05:08:18;23.80;;;12.90;;
73678;SDS011;61978;52.742;16.962;2023-03-11T05:10:44;30.10;;;16.20;;
73678;SDS011;61978;52.742;16.962;2023-03-11T05:13:11;29.20;;;15.20;;
73678;SDS011;61978;52.742;16.962;2023-03-11T05:15:38;29.60;;;16.90;;
73678;SDS011;61978;52.742;16.962;2023-03-11T05:18:04;37.20;;;19.30;;
73678;SDS011;61978;52.742;16.962;2023-03-11T05:20:30;25.90;;;15.60;;
73678;SDS011;61978;52.742;16.962;2023-03-11T05:22:56;34.80;;;21.30;;
73678;SDS011;61978;52.742;16.962;2023-03-11T05:25:22;37.70;;;19.80;;
73678;SDS011;61978;52.742;16.962;2023-03-11T05:27:49;31.10;;;18.80;;
73678;SDS011;61978;52.742;16.962;2023-03-11T05:30:15;21.90;;;13.30;;
73678;SDS011;61978;52.742;16.962;2023-03-11T05:32:42;29.80;;;17.60;;
73678;SDS011;61978;52.742;16.962;2023-03-11T05:35:08;28.90;;;17.30;;
73678;SDS011;61978;52.742;16.962;2023-03-11T05:37:34;24.40;;;14.10;;
73678;SDS011;61978;52.742;16.962;2023-03-11T05:40:05;24.00;;;14.50;;
73678;SDS011;61978;52.742;16.962;2023-03-11T05:42:34;21.90;;;13.00;;
73678;SDS011;61978;52.742;16.962;2023-03-11T05:45:00;21.00;;;12.40;;
73678;SDS011;61978;52.742;16.962;2023-03-11T05:47:26;20.00;;;13.20;;
73678;SDS011;61978;52.742;16.962;2023-03-11T05:49:53;13.00;;;8.70;;
73678;SDS011;61978;52.742;16.962;2023-03-11T05:52:19;17.20;;;9.90;;
73678;SDS011;61978;52.742;16.962;2023-03-11T05:54:48;12.20;;;8.40;;
73678;SDS011;61978;52.742;16.962;2023-03-11T05:57:14;11.50;;;7.50;;
73678;SDS011;61978;52.742;16.962;2023-03-11T05:59:40;8.00;;;6.00;;
73678;SDS011;61978;52.742;16.962;2023-03-11T06:02:06;13.60;;;8.70;;
73678;SDS011;61978;52.742;16.962;2023-03-11T06:04:32;13.80;;;9.20;;
73678;SDS011;61978;52.742;16.962;2023-03-11T06:06:59;12.80;;;8.70;;
73678;SDS011;61978;52.742;16.962;2023-03-11T06:09:27;13.10;;;8.70;;
73678;SDS011;61978;52.742;16.962;2023-03-11T06:11:54;9.70;;;7.30;;
73678;SDS011;61978;52.742;16.962;2023-03-11T06:14:22;15.40;;;9.70;;
73678;SDS011;61978;52.742;16.962;2023-03-11T06:16:49;12.20;;;9.70;;
73678;SDS011;61978;52.742;16.962;2023-03-11T06:19:15;11.80;;;7.30;;
73678;SDS011;61978;52.742;16.962;2023-03-11T06:21:44;15.50;;;10.80;;
73678;SDS011;61978;52.742;16.962;2023-03-11T06:24:10;14.30;;;10.20;;
73678;SDS011;61978;52.742;16.962;2023-03-11T06:26:37;15.40;;;10.90;;
73678;SDS011;61978;52.742;16.962;2023-03-11T06:29:02;14.60;;;10.30;;
73678;SDS011;61978;52.742;16.962;2023-03-11T06:31:28;8.40;;;5.80;;
73678;SDS011;61978;52.742;16.962;2023-03-11T06:33:59;11.70;;;9.20;;
73678;SDS011;61978;52.742;16.962;2023-03-11T06:36:25;15.40;;;11.20;;
73678;SDS011;61978;52.742;16.962;2023-03-11T06:38:52;15.00;;;10.40;;
73678;SDS011;61978;52.742;16.962;2023-03-11T06:41:18;14.60;;;8.80;;
73678;SDS011;61978;52.742;16.962;2023-03-11T06:43:44;12.10;;;8.30;;
73678;SDS011;61978;52.742;16.962;2023-03-11T06:46:17;11.80;;;9.10;;
73678;SDS011;61978;52.742;16.962;2023-03-11T06:48:44;12.60;;;9.30;;
73678;SDS011;61978;52.742;16.962;2023-03-11T06:51:11;10.40;;;7.60;;
73678;SDS011;61978;52.742;16.962;2023-03-11T06:53:38;8.20;;;6.30;;
73678;SDS011;61978;52.742;16.962;2023-03-11T06:56:06;11.80;;;8.30;;
73678;SDS011;61978;52.742;16.962;2023-03-11T06:58:38;9.30;;;7.60;;
73678;SDS011;61978;52.742;16.962;2023-03-11T07:01:05;11.20;;;8.50;;
73678;SDS011;61978;52.742;16.962;2023-03-11T07:03:32;11.80;;;9.40;;
73678;SDS011;61978;52.742;16.962;2023-03-11T07:05:58;10.70;;;8.50;;
73678;SDS011;61978;52.742;16.962;2023-03-11T07:08:24;11.30;;;8.50;;
73678;SDS011;61978;52.742;16.962;2023-03-11T07:11:04;11.20;;;7.70;;
73678;SDS011;61978;52.742;16.962;2023-03-11T07:13:32;13.80;;;10.60;;
73678;SDS011;61978;52.742;16.962;2023-03-11T07:16:10;7.60;;;6.10;;
73678;SDS011;61978;52.742;16.962;2023-03-11T07:18:36;14.00;;;9.30;;
73678;SDS011;61978;52.742;16.962;2023-03-11T07:21:03;11.20;;;8.50;;
73678;SDS011;61978;52.742;16.962;2023-03-11T07:23:30;9.10;;;8.00;;
73678;SDS011;61978;52.742;16.962;2023-03-11T07:25:56;11.50;;;9.00;;
73678;SDS011;61978;52.742;16.962;2023-03-11T07:28:22;10.70;;;8.40;;
73678;SDS011;61978;52.742;16.962;2023-03-11T07:30:48;9.40;;;7.60;;
73678;SDS011;61978;52.742;16.962;2023-03-11T07:33:14;8.90;;;6.10;;
73678;SDS011;61978;52.742;16.962;2023-03-11T07:35:40;8.60;;;6.40;;
73678;SDS011;61978;52.742;16.962;2023-03-11T07:38:06;10.30;;;6.40;;
73678;SDS011;61978;52.742;16.962;2023-03-11T07:40:33;7.80;;;6.50;;
73678;SDS011;61978;52.742;16.962;2023-03-11T07:42:59;5.70;;;4.50;;
73678;SDS011;61978;52.742;16.962;2023-03-11T07:45:25;11.30;;;7.40;;
73678;SDS011;61978;52.742;16.962;2023-03-11T07:47:51;4.90;;;4.10;;
73678;SDS011;61978;52.742;16.962;2023-03-11T07:50:17;5.80;;;4.60;;
73678;SDS011;61978;52.742;16.962;2023-03-11T07:52:43;9.60;;;5.70;;
73678;SDS011;61978;52.742;16.962;2023-03-11T07:55:10;8.90;;;6.20;;
73678;SDS011;61978;52.742;16.962;2023-03-11T07:57:36;4.30;;;3.60;;
73678;SDS011;61978;52.742;16.962;2023-03-11T08:00:02;3.90;;;3.30;;
73678;SDS011;61978;52.742;16.962;2023-03-11T08:02:37;5.10;;;4.60;;
73678;SDS011;61978;52.742;16.962;2023-03-11T08:05:03;7.40;;;4.70;;
73678;SDS011;61978;52.742;16.962;2023-03-11T08:07:30;6.60;;;4.10;;
73678;SDS011;61978;52.742;16.962;2023-03-11T08:09:56;9.90;;;7.40;;
73678;SDS011;61978;52.742;16.962;2023-03-11T08:12:23;8.70;;;4.80;;
73678;SDS011;61978;52.742;16.962;2023-03-11T08:14:49;5.60;;;5.00;;
73678;SDS011;61978;52.742;16.962;2023-03-11T08:17:15;7.10;;;5.90;;
73678;SDS011;61978;52.742;16.962;2023-03-11T08:19:41;8.90;;;6.30;;
73678;SDS011;61978;52.742;16.962;2023-03-11T08:22:08;16.40;;;12.80;;
73678;SDS011;61978;52.742;16.962;2023-03-11T08:24:34;8.20;;;5.00;;
73678;SDS011;61978;52.742;16.962;2023-03-11T08:27:01;9.90;;;6.10;;
73678;SDS011;61978;52.742;16.962;2023-03-11T08:29:28;9.50;;;5.50;;
73678;SDS011;61978;52.742;16.962;2023-03-11T08:31:55;7.00;;;5.80;;
73678;SDS011;61978;52.742;16.962;2023-03-11T08:34:21;6.50;;;4.90;;
73678;SDS011;61978;52.742;16.962;2023-03-11T08:36:46;6.60;;;5.30;;
73678;SDS011;61978;52.742;16.962;2023-03-11T08:39:12;7.60;;;4.90;;
73678;SDS011;61978;52.742;16.962;2023-03-11T08:41:38;4.60;;;4.00;;
73678;SDS011;61978;52.742;16.962;2023-03-11T08:44:04;6.20;;;4.60;;
73678;SDS011;61978;52.742;16.962;2023-03-11T08:46:32;3.80;;;3.10;;
73678;SDS011;61978;52.742;16.962;2023-03-11T08:48:58;2.40;;;1.90;;
73678;SDS011;61978;52.742;16.962;2023-03-11T08:51:24;5.40;;;3.30;;
73678;SDS011;61978;52.742;16.962;2023-03-11T08:53:51;6.50;;;4.30;;
73678;SDS011;61978;52.742;16.962;2023-03-11T08:56:17;2.90;;;2.60;;
73678;SDS011;61978;52.742;16.962;2023-03-11T08:58:45;4.00;;;3.50;;
73678;SDS011;61978;52.742;16.962;2023-03-11T09:01:11;4.80;;;3.40;;
73678;SDS011;61978;52.742;16.962;2023-03-11T09:03:38;3.40;;;3.10;;
73678;SDS011;61978;52.742;16.962;2023-03-11T09:06:05;4.60;;;3.20;;
73678;SDS011;61978;52.742;16.962;2023-03-11T09:08:32;3.10;;;2.50;;
73678;SDS011;61978;52.742;16.962;2023-03-11T09:10:59;4.10;;;3.60;;
73678;SDS011;61978;52.742;16.962;2023-03-11T09:13:25;5.50;;;3.70;;
73678;SDS011;61978;52.742;16.962;2023-03-11T09:15:51;5.50;;;3.30;;
73678;SDS011;61978;52.742;16.962;2023-03-11T09:18:16;5.70;;;3.60;;
73678;SDS011;61978;52.742;16.962;2023-03-11T09:20:45;10.90;;;6.30;;
73678;SDS011;61978;52.742;16.962;2023-03-11T09:23:12;4.10;;;3.60;;
73678;SDS011;61978;52.742;16.962;2023-03-11T09:25:39;4.70;;;3.40;;
73678;SDS011;61978;52.742;16.962;2023-03-11T09:28:05;4.30;;;3.10;;
73678;SDS011;61978;52.742;16.962;2023-03-11T09:30:30;6.70;;;3.80;;
73678;SDS011;61978;52.742;16.962;2023-03-11T09:32:56;3.20;;;2.90;;
73678;SDS011;61978;52.742;16.962;2023-03-11T09:35:22;3.50;;;3.20;;
73678;SDS011;61978;52.742;16.962;2023-03-11T09:37:48;6.80;;;4.10;;
73678;SDS011;61978;52.742;16.962;2023-03-11T09:40:20;3.60;;;3.10;;
73678;SDS011;61978;52.742;16.962;2023-03-11T09:45:18;5.50;;;3.60;;
73678;SDS011;61978;52.742;16.962;2023-03-11T09:50:16;6.10;;;4.10;;
73678;SDS011;61978;52.742;16.962;2023-03-11T09:52:51;4.80;;;2.70;;
73678;SDS011;61978;52.742;16.962;2023-03-11T09:58:24;5.80;;;3.50;;
73678;SDS011;61978;52.742;16.962;2023-03-11T10:00:52;3.80;;;2.70;;
73678;SDS011;61978;52.742;16.962;2023-03-11T10:05:53;4.80;;;2.10;;
73678;SDS011;61978;52.742;16.962;2023-03-11T10:08:37;2.90;;;2.20;;
73678;SDS011;61978;52.742;16.962;2023-03-11T10:11:15;2.70;;;2.20;;
73678;SDS011;61978;52.742;16.962;2023-03-11T10:13:54;3.20;;;2.70;;
73678;SDS011;61978;52.742;16.962;2023-03-11T10:18:52;3.10;;;2.00;;
73678;SDS011;61978;52.742;16.962;2023-03-11T10:21:26;4.30;;;3.20;;
73678;SDS011;61978;52.742;16.962;2023-03-11T10:24:13;3.40;;;2.40;;
73678;SDS011;61978;52.742;16.962;2023-03-11T10:27:25;5.70;;;3.40;;
73678;SDS011;61978;52.742;16.962;2023-03-11T10:30:14;4.00;;;2.90;;
73678;SDS011;61978;52.742;16.962;2023-03-11T10:32:21;4.40;;;3.30;;
73678;SDS011;61978;52.742;16.962;2023-03-11T10:34:59;11.50;;;7.10;;
73678;SDS011;61978;52.742;16.962;2023-03-11T10:37:29;7.00;;;4.30;;
73678;SDS011;61978;52.742;16.962;2023-03-11T10:39:56;6.80;;;4.60;;
73678;SDS011;61978;52.742;16.962;2023-03-11T10:42:30;5.90;;;4.20;;
73678;SDS011;61978;52.742;16.962;2023-03-11T10:44:57;7.00;;;4.20;;
73678;SDS011;61978;52.742;16.962;2023-03-11T10:47:23;8.30;;;3.90;;
73678;SDS011;61978;52.742;16.962;2023-03-11T10:49:50;4.40;;;3.50;;
73678;SDS011;61978;52.742;16.962;2023-03-11T10:52:17;6.60;;;4.00;;
73678;SDS011;61978;52.742;16.962;2023-03-11T10:54:44;10.80;;;5.80;;
73678;SDS011;61978;52.742;16.962;2023-03-11T10:57:24;4.50;;;3.30;;
73678;SDS011;61978;52.742;16.962;2023-03-11T10:59:54;5.90;;;3.50;;
73678;SDS011;61978;52.742;16.962;2023-03-11T11:02:30;5.90;;;3.70;;
73678;SDS011;61978;52.742;16.962;2023-03-11T11:07:32;5.30;;;3.30;;
73678;SDS011;61978;52.742;16.962;2023-03-11T11:10:21;5.10;;;3.00;;
73678;SDS011;61978;52.742;16.962;2023-03-11T11:12:56;5.90;;;2.70;;
73678;SDS011;61978;52.742;16.962;2023-03-11T11:17:47;4.00;;;3.10;;
73678;SDS011;61978;52.742;16.962;2023-03-11T11:20:16;5.90;;;3.60;;
73678;SDS011;61978;52.742;16.962;2023-03-11T11:22:48;5.20;;;3.20;;
73678;SDS011;61978;52.742;16.962;2023-03-11T11:27:54;6.30;;;3.80;;
73678;SDS011;61978;52.742;16.962;2023-03-11T11:30:20;3.20;;;2.20;;
73678;SDS011;61978;52.742;16.962;2023-03-11T11:32:46;5.60;;;3.40;;
73678;SDS011;61978;52.742;16.962;2023-03-11T11:35:12;2.80;;;2.30;;
73678;SDS011;61978;52.742;16.962;2023-03-11T11:37:40;3.20;;;1.80;;
73678;SDS011;61978;52.742;16.962;2023-03-11T11:40:24;2.90;;;2.00;;
73678;SDS011;61978;52.742;16.962;2023-03-11T11:42:51;9.00;;;4.70;;
73678;SDS011;61978;52.742;16.962;2023-03-11T11:45:39;20.20;;;9.70;;
73678;SDS011;61978;52.742;16.962;2023-03-11T11:48:13;8.90;;;5.60;;
73678;SDS011;61978;52.742;16.962;2023-03-11T11:50:44;3.30;;;2.10;;
73678;SDS011;61978;52.742;16.962;2023-03-11T11:55:36;4.70;;;2.60;;
73678;SDS011;61978;52.742;16.962;2023-03-11T11:58:09;2.80;;;2.10;;
73678;SDS011;61978;52.742;16.962;2023-03-11T12:03:10;3.20;;;1.70;;
73678;SDS011;61978;52.742;16.962;2023-03-11T12:05:42;1.80;;;1.30;;
73678;SDS011;61978;52.742;16.962;2023-03-11T12:10:40;2.20;;;1.60;;
73678;SDS011;61978;52.742;16.962;2023-03-11T12:15:57;3.30;;;2.10;;
73678;SDS011;61978;52.742;16.962;2023-03-11T12:18:35;2.50;;;2.10;;
73678;SDS011;61978;52.742;16.962;2023-03-11T12:21:07;2.60;;;1.80;;
73678;SDS011;61978;52.742;16.962;2023-03-11T12:28:39;2.00;;;1.40;;
73678;SDS011;61978;52.742;16.962;2023-03-11T12:31:08;3.00;;;1.70;;
73678;SDS011;61978;52.742;16.962;2023-03-11T12:33:35;3.50;;;1.50;;
73678;SDS011;61978;52.742;16.962;2023-03-11T12:36:03;1.40;;;1.10;;
73678;SDS011;61978;52.742;16.962;2023-03-11T12:38:34;2.90;;;1.50;;
73678;SDS011;61978;52.742;16.962;2023-03-11T12:46:01;2.00;;;1.50;;
73678;SDS011;61978;52.742;16.962;2023-03-11T12:50:57;4.60;;;1.90;;
73678;SDS011;61978;52.742;16.962;2023-03-11T13:04:18;1.60;;;1.20;;
73678;SDS011;61978;52.742;16.962;2023-03-11T13:09:12;5.30;;;1.60;;
73678;SDS011;61978;52.742;16.962;2023-03-11T13:11:46;3.40;;;1.30;;
73678;SDS011;61978;52.742;16.962;2023-03-11T13:14:31;2.40;;;1.80;;
73678;SDS011;61978;52.742;16.962;2023-03-11T13:17:30;2.30;;;1.70;;
73678;SDS011;61978;52.742;16.962;2023-03-11T13:19:52;5.30;;;1.90;;
73678;SDS011;61978;52.742;16.962;2023-03-11T13:25:27;4.90;;;2.30;;
73678;SDS011;61978;52.742;16.962;2023-03-11T13:27:55;3.10;;;1.70;;
73678;SDS011;61978;52.742;16.962;2023-03-11T13:30:23;2.90;;;1.80;;
73678;SDS011;61978;52.742;16.962;2023-03-11T13:32:56;5.30;;;3.10;;
73678;SDS011;61978;52.742;16.962;2023-03-11T13:35:44;4.60;;;1.90;;
73678;SDS011;61978;52.742;16.962;2023-03-11T13:40:52;4.70;;;2.20;;
73678;SDS011;61978;52.742;16.962;2023-03-11T13:43:28;3.50;;;2.00;;
73678;SDS011;61978;52.742;16.962;2023-03-11T13:45:56;4.40;;;3.00;;
73678;SDS011;61978;52.742;16.962;2023-03-11T13:48:29;4.20;;;2.60;;
73678;SDS011;61978;52.742;16.962;2023-03-11T13:53:46;6.30;;;2.00;;
73678;SDS011;61978;52.742;16.962;2023-03-11T13:56:17;6.10;;;3.30;;
73678;SDS011;61978;52.742;16.962;2023-03-11T13:58:46;6.00;;;3.60;;
73678;SDS011;61978;52.742;16.962;2023-03-11T14:01:14;4.20;;;2.60;;
73678;SDS011;61978;52.742;16.962;2023-03-11T14:03:41;4.70;;;2.10;;
73678;SDS011;61978;52.742;16.962;2023-03-11T14:06:09;4.10;;;1.40;;
73678;SDS011;61978;52.742;16.962;2023-03-11T14:08:37;2.40;;;1.60;;
73678;SDS011;61978;52.742;16.962;2023-03-11T14:13:39;3.70;;;1.20;;
73678;SDS011;61978;52.742;16.962;2023-03-11T14:16:09;1.90;;;1.30;;
73678;SDS011;61978;52.742;16.962;2023-03-11T14:18:38;3.20;;;1.60;;
73678;SDS011;61978;52.742;16.962;2023-03-11T14:21:09;4.10;;;2.00;;
73678;SDS011;61978;52.742;16.962;2023-03-11T14:23:39;2.00;;;1.30;;
73678;SDS011;61978;52.742;16.962;2023-03-11T14:26:06;3.00;;;1.30;;
73678;SDS011;61978;52.742;16.962;2023-03-11T14:28:35;3.50;;;1.10;;
73678;SDS011;61978;52.742;16.962;2023-03-11T14:31:02;2.80;;;1.50;;
73678;SDS011;61978;52.742;16.962;2023-03-11T14:33:28;2.80;;;1.50;;
73678;SDS011;61978;52.742;16.962;2023-03-11T14:35:57;2.00;;;1.00;;
73678;SDS011;61978;52.742;16.962;2023-03-11T14:38:27;3.50;;;1.70;;
73678;SDS011;61978;52.742;16.962;2023-03-11T14:41:03;3.10;;;1.40;;
73678;SDS011;61978;52.742;16.962;2023-03-11T14:43:35;7.00;;;1.40;;
73678;SDS011;61978;52.742;16.962;2023-03-11T14:46:02;5.10;;;1.80;;
73678;SDS011;61978;52.742;16.962;2023-03-11T14:48:31;3.00;;;1.50;;
73678;SDS011;61978;52.742;16.962;2023-03-11T14:51:01;2.40;;;1.10;;
73678;SDS011;61978;52.742;16.962;2023-03-11T14:53:36;2.30;;;1.10;;
73678;SDS011;61978;52.742;16.962;2023-03-11T14:56:12;2.80;;;1.70;;
73678;SDS011;61978;52.742;16.962;2023-03-11T14:58:40;2.60;;;1.30;;
73678;SDS011;61978;52.742;16.962;2023-03-11T15:01:18;1.20;;;1.00;;
73678;SDS011;61978;52.742;16.962;2023-03-11T15:03:46;2.70;;;1.70;;
73678;SDS011;61978;52.742;16.962;2023-03-11T15:06:16;3.50;;;1.90;;
73678;SDS011;61978;52.742;16.962;2023-03-11T15:08:54;3.10;;;1.90;;
73678;SDS011;61978;52.742;16.962;2023-03-11T15:11:23;2.60;;;1.40;;
73678;SDS011;61978;52.742;16.962;2023-03-11T15:13:50;2.40;;;1.40;;
73678;SDS011;61978;52.742;16.962;2023-03-11T15:16:20;2.80;;;1.30;;
73678;SDS011;61978;52.742;16.962;2023-03-11T15:18:50;1.40;;;1.10;;
73678;SDS011;61978;52.742;16.962;2023-03-11T15:21:20;2.40;;;1.10;;
73678;SDS011;61978;52.742;16.962;2023-03-11T15:23:56;2.40;;;1.40;;
73678;SDS011;61978;52.742;16.962;2023-03-11T15:26:29;3.00;;;1.80;;
73678;SDS011;61978;52.742;16.962;2023-03-11T15:29:03;3.70;;;1.90;;
73678;SDS011;61978;52.742;16.962;2023-03-11T15:31:36;10.10;;;4.10;;
73678;SDS011;61978;52.742;16.962;2023-03-11T15:39:16;4.90;;;2.50;;
73678;SDS011;61978;52.742;16.962;2023-03-11T15:42:27;5.20;;;3.00;;
73678;SDS011;61978;52.742;16.962;2023-03-11T15:44:38;3.90;;;2.10;;
73678;SDS011;61978;52.742;16.962;2023-03-11T15:47:11;5.00;;;2.10;;
73678;SDS011;61978;52.742;16.962;2023-03-11T15:49:37;3.00;;;2.40;;
73678;SDS011;61978;52.742;16.962;2023-03-11T15:52:03;4.80;;;2.80;;